Time;durP1;ratioP1;P1;durP2;ratioP2;P2;SDS_P1;SDS_P2;PMS_P1;PMS_P2;Temp;Humidity;BMP_temperature;BMP_pressure;BME280_temperature;BME280_humidity;BME280_pressure;Samples;Min_cycle;Max_cycle;Signal;HPM_P1;HPM_P2
2022/01/27 00:07:35;;;;;;;1.35;0.77;;;5.50;99.90;;;;;;5087490;28;20108;-59
2022/01/27 00:10:30;;;;;;;0.08;0.08;;;5.50;99.90;;;;;;5087708;28;20044;-60
2022/01/27 00:12:56;;;;;;;1.45;1.35;;;5.60;99.90;;;;;;5087170;28;20040;-60
2022/01/27 00:15:29;;;;;;;0.05;0.05;;;5.50;99.90;;;;;;5087895;28;20510;-60
2022/01/27 00:18:02;;;;;;;0.43;0.43;;;5.50;99.90;;;;;;5086489;28;20052;-60
2022/01/27 00:20:28;;;;;;;0.82;0.73;;;5.50;99.90;;;;;;5069207;28;20048;-60
2022/01/27 00:22:54;;;;;;;0.17;0.17;;;5.50;99.90;;;;;;5068805;28;20113;-60
2022/01/27 00:25:20;;;;;;;0.00;0.00;;;5.50;99.90;;;;;;5069540;28;20052;-60
2022/01/27 00:27:46;;;;;;;0.05;0.05;;;5.50;99.90;;;;;;5080157;28;20051;-59
2022/01/27 00:30:12;;;;;;;1.27;0.40;;;5.10;99.90;;;;;;5075660;28;20063;-60
2022/01/27 00:32:38;;;;;;;0.00;0.00;;;5.50;99.90;;;;;;5065828;28;20052;-60
2022/01/27 00:35:05;;;;;;;0.10;0.10;;;5.40;99.90;;;;;;5066963;28;20140;-60
2022/01/27 00:37:31;;;;;;;0.08;0.08;;;5.50;99.90;;;;;;5066061;28;20123;-58
2022/01/27 00:39:57;;;;;;;0.20;0.20;;;5.40;99.90;;;;;;5066775;28;20120;-60
2022/01/27 00:42:24;;;;;;;0.43;0.43;;;5.40;99.90;;;;;;5067460;28;20127;-60
2022/01/27 00:44:50;;;;;;;0.10;0.10;;;5.40;99.90;;;;;;5066829;28;20510;-60
2022/01/27 00:47:15;;;;;;;0.10;0.10;;;5.40;99.90;;;;;;5065716;28;20040;-60
2022/01/27 00:49:41;;;;;;;0.10;0.10;;;5.40;99.90;;;;;;5066398;28;20048;-60
2022/01/27 00:52:11;;;;;;;0.10;0.10;;;5.40;99.90;;;;;;5048102;28;20448;-60
2022/01/27 00:54:37;;;;;;;0.50;0.40;;;5.30;99.90;;;;;;5065639;28;20048;-60
2022/01/27 01:02:12;;;;;;;0.47;0.47;;;5.30;99.90;;;;;;5065390;28;20144;-59
2022/01/27 01:04:42;;;;;;;2.35;2.17;;;5.30;99.90;;;;;;5066698;28;20109;-60
2022/01/27 01:07:10;;;;;;;0.00;0.00;;;5.30;99.90;;;;;;5066109;28;20044;-60
2022/01/27 01:15:16;;;;;;;0.40;0.32;;;5.20;99.90;;;;;;5003095;28;20128;-60
2022/01/27 01:31:15;;;;;;;0.00;0.00;;;5.20;99.90;;;;;;5065872;28;20048;-60
2022/01/27 01:33:43;;;;;;;0.50;0.40;;;5.10;99.90;;;;;;5065946;28;20123;-60
2022/01/27 01:36:15;;;;;;;0.00;0.00;;;5.10;99.90;;;;;;5065844;28;20056;-60
2022/01/27 01:38:45;;;;;;;0.00;0.00;;;5.10;99.90;;;;;;5065466;28;20048;-60
2022/01/27 01:41:11;;;;;;;3.85;0.80;;;5.10;99.90;;;;;;5047642;28;20095;-60
2022/01/27 01:43:37;;;;;;;0.00;0.00;;;5.10;99.90;;;;;;5047561;28;20063;-59
2022/01/27 01:46:02;;;;;;;0.00;0.00;;;5.10;99.90;;;;;;5064964;28;20491;-59
2022/01/27 01:48:28;;;;;;;0.10;0.10;;;5.00;99.90;;;;;;5047492;28;20083;-59
2022/01/27 01:50:55;;;;;;;0.22;0.22;;;5.00;99.90;;;;;;5065317;28;20128;-59
2022/01/27 01:53:20;;;;;;;0.00;0.00;;;5.00;99.90;;;;;;5065722;28;20052;-59
2022/01/27 01:55:46;;;;;;;0.00;0.00;;;5.00;99.90;;;;;;5047660;28;20071;-59
2022/01/27 01:58:12;;;;;;;0.03;0.03;;;4.90;99.90;;;;;;5064610;28;20554;-59
2022/01/27 02:00:38;;;;;;;0.40;0.40;;;4.90;99.90;;;;;;5064850;28;20050;-58
2022/01/27 02:03:03;;;;;;;0.30;0.30;;;4.90;99.90;;;;;;5065185;28;20024;-59
2022/01/27 02:05:34;;;;;;;0.00;0.00;;;4.90;99.90;;;;;;5081450;22;20051;-59
2022/01/27 02:19:21;;;;;;;0.00;0.00;;;5.00;99.90;;;;;;5085929;28;20119;-61
2022/01/27 02:21:56;;;;;;;0.15;0.15;;;5.00;99.90;;;;;;5084989;28;20047;-61
2022/01/27 02:24:23;;;;;;;2.08;1.10;;;5.00;99.90;;;;;;5085764;28;20477;-62
2022/01/27 02:26:50;;;;;;;0.00;0.00;;;5.20;99.90;;;;;;5084647;28;20538;-60
2022/01/27 02:29:17;;;;;;;0.20;0.10;;;5.00;99.90;;;;;;5075649;28;20076;-62
2022/01/27 02:31:43;;;;;;;0.00;0.00;;;5.10;99.90;;;;;;5064205;28;20048;-62
2022/01/27 02:34:09;;;;;;;0.00;0.00;;;5.10;99.90;;;;;;5064717;28;20048;-61
2022/01/27 02:36:35;;;;;;;2.85;2.65;;;5.10;99.90;;;;;;5064665;28;20052;-58
2022/01/27 02:39:06;;;;;;;0.10;0.10;;;5.10;99.90;;;;;;5064533;28;20056;-59
2022/01/27 02:41:51;;;;;;;0.00;0.00;;;5.10;99.90;;;;;;5063505;28;20083;-59
2022/01/27 02:44:58;;;;;;;3.17;1.50;;;5.10;99.90;;;;;;5064394;28;20044;-59
2022/01/27 02:47:25;;;;;;;0.20;0.20;;;5.10;99.90;;;;;;5021370;28;20049;-59
2022/01/27 02:49:51;;;;;;;0.00;0.00;;;5.10;99.90;;;;;;5021757;28;20131;-60
2022/01/27 02:52:17;;;;;;;0.00;0.00;;;5.10;99.90;;;;;;5041917;28;20052;-61
2022/01/27 02:54:43;;;;;;;0.00;0.00;;;5.00;99.90;;;;;;5064684;28;20119;-61
2022/01/27 02:57:09;;;;;;;0.85;0.85;;;5.00;99.90;;;;;;5064539;28;20431;-62
2022/01/27 02:59:34;;;;;;;0.30;0.30;;;5.00;99.90;;;;;;5062439;28;20060;-61
2022/01/27 03:02:00;;;;;;;0.47;0.30;;;5.10;99.90;;;;;;5063611;28;20053;-61
2022/01/27 03:04:26;;;;;;;0.00;0.00;;;5.10;99.90;;;;;;5064503;28;20033;-58
2022/01/27 03:06:52;;;;;;;0.32;0.32;;;5.10;99.90;;;;;;5064243;28;20487;-59
2022/01/27 03:09:18;;;;;;;0.00;0.00;;;5.10;99.90;;;;;;5064026;28;20044;-59
2022/01/27 03:11:46;;;;;;;0.43;0.43;;;5.10;99.90;;;;;;5063980;28;20040;-59
2022/01/27 03:14:14;;;;;;;0.70;0.70;;;5.20;99.90;;;;;;5064201;28;20071;-59
2022/01/27 03:16:40;;;;;;;0.10;0.10;;;5.20;99.90;;;;;;5062643;28;20131;-59
2022/01/27 03:19:05;;;;;;;0.60;0.60;;;5.20;99.90;;;;;;5063733;28;20048;-59
2022/01/27 03:21:31;;;;;;;0.00;0.00;;;5.20;99.90;;;;;;5063903;28;20040;-58
2022/01/27 03:23:57;;;;;;;0.20;0.20;;;5.20;99.90;;;;;;5064248;28;20449;-59
2022/01/27 03:26:23;;;;;;;0.00;0.00;;;5.30;99.90;;;;;;5064752;28;20044;-60
2022/01/27 03:28:49;;;;;;;0.73;0.73;;;5.20;99.90;;;;;;5075521;28;20511;-61
2022/01/27 03:31:15;;;;;;;0.93;0.90;;;5.20;99.90;;;;;;5063501;28;20076;-59
2022/01/27 03:33:42;;;;;;;0.10;0.10;;;5.20;99.90;;;;;;5063893;28;20048;-58
2022/01/27 03:36:08;;;;;;;0.20;0.20;;;5.10;99.90;;;;;;5063418;28;20054;-59
2022/01/27 03:38:33;;;;;;;0.73;0.60;;;5.10;99.90;;;;;;5045910;28;20052;-59
2022/01/27 03:41:04;;;;;;;0.00;0.00;;;5.10;99.90;;;;;;5064200;28;20051;-59
2022/01/27 03:43:29;;;;;;;0.63;0.63;;;5.10;99.90;;;;;;5064059;28;20067;-59
2022/01/27 03:45:55;;;;;;;0.00;0.00;;;5.20;99.90;;;;;;5061336;28;20633;-59
2022/01/27 03:48:20;;;;;;;0.00;0.00;;;5.20;99.90;;;;;;5064236;28;20486;-59
2022/01/27 03:50:46;;;;;;;0.75;0.40;;;5.20;99.90;;;;;;5063615;28;20048;-59
2022/01/27 03:53:12;;;;;;;0.05;0.05;;;5.20;99.90;;;;;;5063830;28;20048;-62
2022/01/27 03:55:38;;;;;;;0.10;0.10;;;5.20;99.90;;;;;;5063245;28;20139;-61
2022/01/27 03:58:03;;;;;;;0.47;0.30;;;5.20;99.90;;;;;;5063838;28;20120;-62
2022/01/27 04:00:29;;;;;;;0.22;0.22;;;5.30;99.90;;;;;;5061807;28;20470;-61
2022/01/27 04:03:03;;;;;;;0.00;0.00;;;5.20;99.90;;;;;;5062615;28;20048;-62
2022/01/27 04:05:41;;;;;;;0.20;0.20;;;5.30;99.90;;;;;;5063818;28;20059;-62
2022/01/27 04:08:10;;;;;;;0.10;0.10;;;5.30;99.90;;;;;;5063757;28;20094;-61
2022/01/27 04:10:37;;;;;;;1.60;0.90;;;5.30;99.90;;;;;;5063366;28;20036;-59
2022/01/27 04:13:04;;;;;;;0.65;0.22;;;5.30;99.90;;;;;;5063469;28;20051;-59
2022/01/27 04:15:30;;;;;;;0.28;0.28;;;5.30;99.90;;;;;;5063016;28;20040;-57
2022/01/27 04:17:55;;;;;;;0.00;0.00;;;5.30;99.90;;;;;;5063691;28;20368;-59
2022/01/27 04:20:21;;;;;;;0.00;0.00;;;5.30;99.90;;;;;;5079423;28;20482;-59
2022/01/27 04:22:47;;;;;;;2.45;1.33;;;5.30;99.90;;;;;;5063657;28;20048;-59
2022/01/27 04:25:14;;;;;;;0.20;0.20;;;5.20;99.90;;;;;;5063288;28;20506;-58
2022/01/27 04:27:45;;;;;;;3.50;1.33;;;5.40;99.90;;;;;;5067565;28;20044;-59
2022/01/27 04:30:16;;;;;;;0.00;0.00;;;5.30;99.90;;;;;;5078250;28;20504;-59
2022/01/27 04:32:48;;;;;;;0.05;0.05;;;5.30;99.90;;;;;;5087395;28;20060;-59
2022/01/27 04:35:17;;;;;;;0.00;0.00;;;5.30;99.90;;;;;;5087231;28;20617;-59
2022/01/27 04:37:57;;;;;;;0.10;0.10;;;5.30;99.90;;;;;;5086825;28;20044;-59
2022/01/27 04:40:32;;;;;;;0.10;0.10;;;4.90;99.90;;;;;;5086278;28;20165;-59
2022/01/27 04:43:17;;;;;;;0.05;0.05;;;5.30;99.90;;;;;;5086820;28;20067;-58
2022/01/27 04:45:52;;;;;;;0.28;0.28;;;5.30;99.90;;;;;;5086358;28;20083;-59
2022/01/27 04:48:21;;;;;;;0.30;0.30;;;5.30;99.90;;;;;;5087232;28;20075;-59
2022/01/27 04:50:46;;;;;;;0.00;0.00;;;5.40;99.90;;;;;;5087252;28;20055;-61
2022/01/27 04:53:20;;;;;;;1.58;0.85;;;5.30;99.90;;;;;;5086782;28;20048;-61
2022/01/27 04:55:46;;;;;;;0.30;0.20;;;5.40;99.90;;;;;;5087057;28;20063;-61
2022/01/27 04:58:16;;;;;;;0.38;0.35;;;5.40;99.90;;;;;;5086828;28;20616;-62
2022/01/27 05:00:43;;;;;;;0.13;0.13;;;5.40;99.90;;;;;;5086368;28;20063;-61
2022/01/27 05:03:17;;;;;;;0.20;0.10;;;5.30;99.90;;;;;;5085792;28;20056;-61
2022/01/27 05:05:43;;;;;;;0.00;0.00;;;5.30;99.90;;;;;;5086043;28;20074;-61
2022/01/27 05:08:15;;;;;;;0.17;0.17;;;6.00;99.90;;;;;;5086676;28;20044;-62
2022/01/27 05:10:42;;;;;;;0.73;0.73;;;5.30;99.90;;;;;;5086823;28;20044;-59
2022/01/27 05:13:12;;;;;;;0.35;0.35;;;5.30;99.90;;;;;;5086190;28;20100;-59
2022/01/27 05:15:43;;;;;;;0.63;0.40;;;5.30;99.90;;;;;;5085730;28;20043;-58
2022/01/27 05:18:10;;;;;;;0.08;0.08;;;5.30;99.90;;;;;;5086355;28;20047;-59
2022/01/27 05:20:35;;;;;;;0.00;0.00;;;5.40;99.90;;;;;;5068212;28;20123;-58
2022/01/27 05:23:01;;;;;;;1.40;1.30;;;5.40;99.90;;;;;;5086547;28;20123;-59
2022/01/27 05:25:27;;;;;;;0.00;0.00;;;5.30;99.90;;;;;;5086430;28;20506;-59
2022/01/27 05:27:52;;;;;;;1.50;0.45;;;5.30;99.90;;;;;;5078789;28;20040;-58
2022/01/27 05:30:18;;;;;;;0.30;0.30;;;5.20;99.90;;;;;;5072876;28;20037;-59
2022/01/27 05:32:44;;;;;;;0.00;0.00;;;5.10;99.90;;;;;;5066127;28;20445;-61
2022/01/27 05:35:09;;;;;;;0.35;0.35;;;5.10;99.90;;;;;;5065642;28;20518;-61
2022/01/27 05:37:35;;;;;;;0.00;0.00;;;5.10;99.90;;;;;;5064931;28;20040;-62
2022/01/27 05:40:01;;;;;;;0.70;0.70;;;5.10;99.90;;;;;;5064638;28;20499;-61
2022/01/27 05:42:27;;;;;;;0.10;0.10;;;5.10;99.90;;;;;;5066142;28;20047;-61
2022/01/27 05:44:52;;;;;;;4.65;0.65;;;5.10;99.90;;;;;;5065843;28;20115;-61
2022/01/27 05:47:18;;;;;;;0.00;0.00;;;5.10;99.90;;;;;;5064698;28;20093;-59
2022/01/27 05:49:43;;;;;;;0.20;0.20;;;5.10;99.90;;;;;;5065382;28;20052;-61
2022/01/27 05:52:09;;;;;;;0.50;0.50;;;5.10;99.90;;;;;;5065644;28;20509;-61
2022/01/27 05:54:35;;;;;;;0.00;0.00;;;5.00;99.90;;;;;;5065639;28;20502;-61
2022/01/27 05:57:01;;;;;;;0.00;0.00;;;5.10;99.90;;;;;;5065610;28;20478;-62
2022/01/27 05:59:26;;;;;;;0.20;0.20;;;5.00;99.90;;;;;;5063988;28;20502;-61
2022/01/27 06:01:52;;;;;;;0.15;0.15;;;5.00;99.90;;;;;;5064987;28;20064;-59
2022/01/27 06:04:18;;;;;;;0.00;0.00;;;5.00;99.90;;;;;;5065549;28;20041;-58
2022/01/27 06:06:44;;;;;;;2.40;2.20;;;5.00;99.90;;;;;;5065172;28;20087;-61
2022/01/27 06:09:11;;;;;;;0.50;0.50;;;5.00;99.90;;;;;;5065148;28;20416;-59
2022/01/27 06:11:36;;;;;;;0.77;0.55;;;5.00;99.90;;;;;;5063723;28;20076;-60
2022/01/27 06:14:02;;;;;;;0.00;0.00;;;5.00;99.90;;;;;;5065271;28;20076;-59
2022/01/27 06:16:28;;;;;;;0.00;0.00;;;5.10;99.90;;;;;;5064488;28;20090;-59
2022/01/27 06:18:54;;;;;;;0.05;0.05;;;5.10;99.90;;;;;;5064466;28;20049;-60
2022/01/27 06:21:20;;;;;;;0.10;0.10;;;5.10;99.90;;;;;;5065346;28;20045;-60
2022/01/27 06:23:45;;;;;;;1.55;0.20;;;5.10;99.90;;;;;;5065093;28;20118;-60
2022/01/27 06:26:11;;;;;;;0.00;0.00;;;5.00;99.90;;;;;;5065120;28;20118;-59
2022/01/27 06:28:37;;;;;;;0.20;0.20;;;5.10;99.90;;;;;;5074352;28;20032;-59
2022/01/27 06:31:03;;;;;;;0.00;0.00;;;5.20;99.90;;;;;;5065742;28;20052;-60
2022/01/27 06:33:28;;;;;;;0.63;0.20;;;5.60;99.90;;;;;;5065180;28;20052;-60
2022/01/27 06:35:54;;;;;;;0.10;0.10;;;5.20;99.90;;;;;;5063243;28;20091;-60
2022/01/27 06:38:19;;;;;;;0.08;0.08;;;5.20;99.90;;;;;;5064813;28;20052;-59
2022/01/27 06:40:45;;;;;;;0.73;0.73;;;5.30;99.90;;;;;;5064533;28;20131;-60
2022/01/27 06:43:14;;;;;;;0.32;0.30;;;5.30;99.90;;;;;;5064470;28;20518;-59
2022/01/27 06:45:40;;;;;;;0.20;0.20;;;5.30;99.90;;;;;;5061963;28;20051;-59
2022/01/27 06:48:06;;;;;;;0.00;0.00;;;5.30;99.90;;;;;;5063223;28;20048;-60
2022/01/27 06:50:32;;;;;;;0.22;0.22;;;5.30;99.90;;;;;;5064606;28;20403;-59
2022/01/27 06:52:58;;;;;;;0.25;0.22;;;5.30;99.90;;;;;;5064278;28;20093;-60
2022/01/27 06:55:24;;;;;;;0.15;0.15;;;5.40;99.90;;;;;;5064364;28;20399;-60
2022/01/27 06:57:50;;;;;;;1.25;0.63;;;5.40;99.90;;;;;;5064545;28;20040;-60
2022/01/27 07:00:16;;;;;;;0.00;0.00;;;5.40;99.90;;;;;;5063537;28;20059;-60
2022/01/27 07:02:42;;;;;;;0.00;0.00;;;5.40;99.90;;;;;;5064341;28;20049;-59
2022/01/27 07:05:09;;;;;;;0.17;0.10;;;5.50;99.90;;;;;;5063664;28;20048;-59
2022/01/27 07:07:35;;;;;;;0.00;0.00;;;5.50;99.90;;;;;;5064142;28;20053;-59
2022/01/27 07:10:00;;;;;;;0.03;0.03;;;5.60;99.90;;;;;;5063918;28;20054;-57
2022/01/27 07:12:26;;;;;;;0.22;0.22;;;5.50;99.90;;;;;;5064348;28;20048;-59
2022/01/27 07:14:54;;;;;;;2.05;1.95;;;5.60;99.90;;;;;;5062353;28;20044;-59
2022/01/27 07:17:20;;;;;;;0.30;0.30;;;5.60;99.90;;;;;;5064320;28;20075;-59
2022/01/27 07:19:46;;;;;;;0.08;0.03;;;5.60;99.90;;;;;;5063464;28;20044;-60
2022/01/27 07:22:12;;;;;;;0.03;0.03;;;5.60;99.90;;;;;;5062522;28;20041;-59
2022/01/27 07:24:37;;;;;;;0.47;0.47;;;5.70;99.90;;;;;;5063330;28;20036;-59
2022/01/27 07:27:03;;;;;;;1.10;1.00;;;5.70;99.90;;;;;;5064802;28;20056;-60
2022/01/27 07:29:29;;;;;;;0.00;0.00;;;5.70;99.90;;;;;;5077219;28;20131;-60
2022/01/27 07:31:55;;;;;;;0.10;0.10;;;6.00;99.90;;;;;;5083246;28;20126;-59
2022/01/27 07:34:20;;;;;;;0.22;0.22;;;5.70;99.90;;;;;;5083958;28;20136;-59
2022/01/27 07:36:46;;;;;;;0.00;0.00;;;5.70;99.90;;;;;;5082639;28;20071;-59
2022/01/27 07:39:16;;;;;;;0.00;0.00;;;5.70;99.90;;;;;;5083863;28;20495;-59
2022/01/27 07:41:44;;;;;;;0.00;0.00;;;5.70;99.90;;;;;;5083163;28;20036;-60
2022/01/27 07:44:10;;;;;;;8.20;3.60;;;5.80;99.90;;;;;;5083808;28;20040;-60
2022/01/27 07:46:36;;;;;;;0.00;0.00;;;5.80;99.90;;;;;;5083091;28;20116;-59
2022/01/27 07:49:03;;;;;;;0.00;0.00;;;5.80;99.90;;;;;;5083959;28;20498;-60
2022/01/27 07:51:28;;;;;;;0.00;0.00;;;5.80;99.90;;;;;;5083174;28;20131;-59
2022/01/27 07:53:54;;;;;;;0.00;0.00;;;5.80;99.90;;;;;;5083382;28;20123;-59
2022/01/27 07:56:19;;;;;;;0.00;0.00;;;5.90;99.90;;;;;;5083962;28;20105;-59
2022/01/27 07:58:45;;;;;;;0.00;0.00;;;5.90;99.90;;;;;;5083808;28;20079;-59
2022/01/27 08:01:11;;;;;;;0.00;0.00;;;5.90;99.90;;;;;;5082681;28;20585;-59
2022/01/27 08:03:37;;;;;;;0.00;0.00;;;5.90;99.90;;;;;;5086748;28;20051;-59
2022/01/27 08:06:06;;;;;;;0.00;0.00;;;5.90;99.90;;;;;;5087002;28;20060;-59
2022/01/27 08:08:33;;;;;;;0.00;0.00;;;6.00;99.90;;;;;;5085619;28;20067;-59
2022/01/27 08:10:59;;;;;;;0.00;0.00;;;6.00;99.90;;;;;;5087008;28;20036;-60
2022/01/27 08:13:26;;;;;;;0.60;0.22;;;6.00;99.90;;;;;;5086013;28;20079;-59
2022/01/27 08:15:52;;;;;;;0.00;0.00;;;6.10;99.90;;;;;;5086418;28;20044;-59
2022/01/27 08:18:18;;;;;;;0.00;0.00;;;6.10;99.90;;;;;;5087262;28;20070;-62
2022/01/27 08:20:46;;;;;;;0.00;0.00;;;6.20;99.90;;;;;;5086169;28;20486;-61
2022/01/27 08:23:13;;;;;;;0.10;0.10;;;6.10;99.90;;;;;;5087402;28;20048;-60
2022/01/27 08:25:40;;;;;;;0.00;0.00;;;6.20;99.90;;;;;;5086935;28;20044;-60
2022/01/27 08:28:15;;;;;;;0.00;0.00;;;6.30;99.90;;;;;;5080262;28;20498;-60
2022/01/27 08:30:46;;;;;;;0.00;0.00;;;6.30;99.90;;;;;;5070980;28;20052;-63
2022/01/27 08:33:17;;;;;;;0.00;0.00;;;6.40;99.90;;;;;;5067062;28;20048;-62
2022/01/27 08:35:43;;;;;;;0.00;0.00;;;6.40;99.90;;;;;;5066472;28;20044;-62
2022/01/27 08:38:08;;;;;;;0.00;0.00;;;6.40;99.90;;;;;;5066476;28;20494;-62
2022/01/27 08:40:35;;;;;;;0.00;0.00;;;6.40;99.90;;;;;;5065343;28;20139;-61
2022/01/27 08:43:01;;;;;;;0.00;0.00;;;6.50;99.90;;;;;;5065483;28;20122;-61
2022/01/27 08:45:27;;;;;;;0.00;0.00;;;6.60;99.90;;;;;;5065620;28;20040;-61
2022/01/27 08:47:57;;;;;;;0.00;0.00;;;6.60;99.90;;;;;;5066870;28;20138;-60
2022/01/27 08:50:24;;;;;;;0.00;0.00;;;6.60;99.90;;;;;;5067142;28;20052;-59
2022/01/27 08:52:50;;;;;;;0.00;0.00;;;6.70;99.90;;;;;;5065554;28;20048;-60
2022/01/27 08:55:16;;;;;;;0.00;0.00;;;6.70;99.90;;;;;;5066207;28;20045;-59
2022/01/27 08:57:42;;;;;;;1.17;1.00;;;6.70;99.90;;;;;;5066209;28;20487;-59
2022/01/27 09:00:11;;;;;;;0.10;0.10;;;6.80;99.90;;;;;;5065778;28;20040;-63
2022/01/27 09:02:37;;;;;;;0.20;0.10;;;6.80;99.90;;;;;;5064161;28;20049;-63
2022/01/27 09:05:04;;;;;;;0.43;0.43;;;6.80;99.90;;;;;;5065411;28;20086;-63
2022/01/27 09:07:29;;;;;;;0.00;0.00;;;6.90;99.90;;;;;;5062387;28;20052;-65
2022/01/27 09:09:55;;;;;;;0.10;0.10;;;6.90;99.90;;;;;;5089473;28;20243;-63
2022/01/27 09:12:21;;;;;;;0.00;0.00;;;6.90;99.90;;;;;;5084554;28;20482;-63
2022/01/27 09:14:46;;;;;;;0.00;0.00;;;6.90;99.90;;;;;;5072430;28;20096;-63
2022/01/27 09:17:14;;;;;;;0.00;0.00;;;7.00;99.90;;;;;;5075055;28;20040;-62
2022/01/27 09:19:42;;;;;;;0.00;0.00;;;7.10;99.90;;;;;;5085100;28;20688;-63
2022/01/27 09:22:12;;;;;;;0.00;0.00;;;7.10;99.90;;;;;;5069000;28;20066;-64
2022/01/27 09:25:21;;;;;;;0.00;0.00;;;7.80;99.90;;;;;;5063955;28;20071;-64
2022/01/27 09:27:37;;;;;;;0.00;0.00;;;7.10;99.90;;;;;;5070967;28;20048;-65
2022/01/27 09:30:03;;;;;;;0.00;0.00;;;7.20;99.90;;;;;;5072951;28;20086;-65
2022/01/27 09:32:29;;;;;;;0.00;0.00;;;7.20;99.90;;;;;;5063807;28;20040;-65
2022/01/27 09:34:54;;;;;;;0.00;0.00;;;7.50;99.90;;;;;;5064839;28;20452;-66
2022/01/27 09:37:20;;;;;;;0.00;0.00;;;7.30;99.90;;;;;;5046892;28;20052;-66
2022/01/27 09:39:46;;;;;;;0.00;0.00;;;7.30;99.90;;;;;;5071650;28;20086;-64
2022/01/27 09:42:12;;;;;;;0.00;0.00;;;7.30;99.90;;;;;;5064937;28;20403;-65
2022/01/27 09:44:41;;;;;;;0.10;0.10;;;7.30;99.90;;;;;;5074077;28;20040;-65
2022/01/27 09:47:11;;;;;;;0.30;0.30;;;7.40;99.90;;;;;;5085110;28;20433;-65
2022/01/27 09:49:42;;;;;;;0.20;0.20;;;7.40;99.90;;;;;;5084938;28;20044;-65
2022/01/27 09:52:08;;;;;;;0.20;0.20;;;7.40;99.90;;;;;;5085184;28;20060;-65
2022/01/27 09:54:35;;;;;;;0.00;0.00;;;7.40;99.90;;;;;;5082112;28;20063;-65
2022/01/27 09:57:02;;;;;;;0.00;0.00;;;7.40;99.90;;;;;;5063312;28;20131;-64
2022/01/27 09:59:28;;;;;;;0.00;0.00;;;7.40;99.90;;;;;;5062636;28;20052;-64
2022/01/27 10:02:02;;;;;;;0.52;0.52;;;7.40;99.90;;;;;;5072887;28;20600;-66
2022/01/27 10:04:47;;;;;;;0.00;0.00;;;7.50;99.90;;;;;;5072226;28;20059;-63
2022/01/27 10:07:15;;;;;;;0.00;0.00;;;8.10;99.90;;;;;;5072927;28;20106;-65
2022/01/27 10:10:15;;;;;;;0.00;0.00;;;8.30;99.90;;;;;;5071178;28;20080;-65
2022/01/27 10:12:46;;;;;;;0.30;0.30;;;7.60;99.90;;;;;;5063331;28;20055;-65
2022/01/27 10:15:20;;;;;;;0.00;0.00;;;7.60;99.90;;;;;;5063234;28;20045;-65
2022/01/27 10:18:14;;;;;;;0.00;0.00;;;7.70;99.90;;;;;;5064348;28;20049;-64
2022/01/27 10:21:01;;;;;;;0.00;0.00;;;7.70;99.90;;;;;;5064129;28;20055;-65
2022/01/27 10:23:32;;;;;;;0.00;0.00;;;7.80;99.90;;;;;;5046573;28;20171;-65
2022/01/27 10:26:08;;;;;;;0.00;0.00;;;7.80;99.90;;;;;;5063654;28;20064;-64
2022/01/27 10:28:50;;;;;;;0.00;0.00;;;7.80;99.90;;;;;;5072479;28;20044;-65
2022/01/27 10:31:20;;;;;;;0.10;0.10;;;7.90;99.90;;;;;;5045469;28;20052;-65
2022/01/27 10:34:04;;;;;;;0.00;0.00;;;7.90;99.90;;;;;;5064215;28;20399;-65
2022/01/27 10:36:35;;;;;;;0.00;0.00;;;7.90;99.90;;;;;;5046282;28;20052;-66
2022/01/27 10:39:11;;;;;;;0.00;0.00;;;7.90;99.90;;;;;;5062108;28;20137;-65
2022/01/27 10:41:38;;;;;;;0.00;0.00;;;7.90;99.90;;;;;;5064102;28;20376;-65
2022/01/27 10:44:16;;;;;;;0.00;0.00;;;8.90;99.90;;;;;;5062358;28;20048;-65
2022/01/27 10:47:26;;;;;;;0.00;0.00;;;8.80;99.90;;;;;;5062653;28;20131;-65
2022/01/27 10:50:00;;;;;;;0.00;0.00;;;7.90;99.90;;;;;;4985242;28;20054;-64
2022/01/27 10:52:44;;;;;;;0.00;0.00;;;8.00;99.90;;;;;;5001509;28;20045;-64
2022/01/27 10:55:17;;;;;;;0.00;0.00;;;7.80;99.90;;;;;;5036412;28;20911;-56
2022/01/27 10:57:47;;;;;;;0.00;0.00;;;7.90;99.90;;;;;;5063911;28;20044;-62
2022/01/27 11:00:24;;;;;;;0.00;0.00;;;8.00;99.90;;;;;;5065543;28;20764;-63
2022/01/27 11:03:02;;;;;;;0.00;0.00;;;8.90;99.90;;;;;;5065526;28;20044;-63
2022/01/27 11:05:31;;;;;;;0.00;0.00;;;8.10;99.90;;;;;;5062543;28;20060;-64
2022/01/27 11:07:58;;;;;;;0.00;0.00;;;8.00;99.90;;;;;;5063629;28;20088;-66
2022/01/27 11:10:24;;;;;;;0.10;0.10;;;8.10;99.90;;;;;;5063913;28;20040;-66
2022/01/27 11:12:50;;;;;;;0.00;0.00;;;8.10;99.90;;;;;;5062384;28;20052;-65
2022/01/27 11:15:18;;;;;;;0.00;0.00;;;8.10;99.90;;;;;;5062872;28;20036;-65
2022/01/27 11:17:46;;;;;;;0.00;0.00;;;8.30;99.90;;;;;;5061975;28;20123;-65
2022/01/27 11:20:37;;;;;;;0.00;0.00;;;8.20;99.90;;;;;;5063142;28;20519;-66
2022/01/27 11:23:25;;;;;;;0.00;0.00;;;8.30;99.90;;;;;;5062313;28;20595;-65
2022/01/27 11:25:54;;;;;;;0.00;0.00;;;8.40;99.90;;;;;;5045705;28;20048;-65
2022/01/27 11:28:24;;;;;;;0.00;0.00;;;8.30;99.90;;;;;;5066650;28;20052;-65
2022/01/27 11:31:07;;;;;;;1.65;0.98;;;8.30;99.90;;;;;;5061300;28;20143;-65
2022/01/27 11:33:35;;;;;;;0.00;0.00;;;8.40;99.90;;;;;;5063179;28;20051;-65
2022/01/27 11:36:06;;;;;;;0.00;0.00;;;8.40;99.90;;;;;;5063324;28;20869;-65
2022/01/27 11:38:31;;;;;;;0.00;0.00;;;8.50;99.90;;;;;;5062771;28;20138;-65
2022/01/27 11:40:57;;;;;;;0.00;0.00;;;8.50;99.90;;;;;;5062151;28;20178;-65
2022/01/27 11:43:33;;;;;;;0.00;0.00;;;8.50;99.90;;;;;;5062933;28;20130;-65
2022/01/27 11:46:16;;;;;;;0.00;0.00;;;8.50;99.90;;;;;;5061938;28;20442;-64
2022/01/27 11:48:42;;;;;;;0.00;0.00;;;8.60;99.90;;;;;;5063589;28;20383;-62
2022/01/27 11:51:13;;;;;;;0.00;0.00;;;8.60;99.90;;;;;;5063663;28;20045;-63
2022/01/27 11:53:48;;;;;;;0.00;0.00;;;8.70;99.90;;;;;;5063503;28;20052;-63
2022/01/27 11:56:23;;;;;;;0.00;0.00;;;8.80;99.90;;;;;;5063764;28;20063;-63
2022/01/27 11:58:51;;;;;;;0.00;0.00;;;8.70;99.90;;;;;;5062301;28;20049;-63
2022/01/27 12:01:22;;;;;;;0.00;0.00;;;8.70;99.90;;;;;;5062593;28;20068;-63
2022/01/27 12:04:05;;;;;;;0.00;0.00;;;8.80;99.90;;;;;;5063501;28;20091;-63
2022/01/27 12:06:42;;;;;;;0.10;0.10;;;8.70;99.90;;;;;;5061848;28;20060;-62
2022/01/27 12:09:20;;;;;;;0.00;0.00;;;8.60;99.90;;;;;;5060880;28;20044;-61
2022/01/27 12:11:56;;;;;;;0.00;0.00;;;8.90;99.90;;;;;;5062690;28;20058;-62
2022/01/27 12:14:26;;;;;;;0.00;0.00;;;8.70;99.90;;;;;;5063712;28;20059;-61
2022/01/27 12:17:10;;;;;;;0.00;0.00;;;8.60;99.90;;;;;;5064067;28;20040;-62
2022/01/27 12:19:57;;;;;;;0.00;0.00;;;8.60;99.90;;;;;;5062687;28;20098;-62
2022/01/27 12:22:50;;;;;;;0.00;0.00;;;8.60;99.90;;;;;;5062719;28;20135;-62
2022/01/27 12:25:17;;;;;;;0.00;0.00;;;8.80;99.90;;;;;;5063301;28;20044;-62
2022/01/27 12:27:55;;;;;;;0.10;0.10;;;8.60;99.90;;;;;;5066502;28;20430;-62
2022/01/27 12:30:21;;;;;;;0.00;0.00;;;8.60;99.90;;;;;;5076532;28;20040;-63
2022/01/27 12:32:47;;;;;;;0.00;0.00;;;8.50;99.90;;;;;;5083966;28;20040;-62
2022/01/27 12:35:17;;;;;;;0.00;0.00;;;8.50;99.90;;;;;;5083701;28;20040;-63
2022/01/27 12:37:46;;;;;;;0.00;0.00;;;8.50;99.90;;;;;;5082482;28;20048;-62
2022/01/27 12:40:19;;;;;;;0.00;0.00;;;8.60;99.90;;;;;;5084007;28;20040;-62
2022/01/27 12:43:02;;;;;;;0.00;0.00;;;8.50;99.90;;;;;;5083895;28;20127;-62
2022/01/27 12:45:31;;;;;;;0.00;0.00;;;8.60;99.90;;;;;;5083028;28;20048;-62
2022/01/27 12:48:00;;;;;;;0.00;0.00;;;8.60;99.90;;;;;;5084210;28;20059;-62
2022/01/27 12:50:28;;;;;;;0.75;0.75;;;8.50;99.90;;;;;;5087668;28;20072;-62
2022/01/27 12:53:08;;;;;;;0.00;0.00;;;8.50;99.90;;;;;;5086681;28;20414;-61
2022/01/27 12:55:36;;;;;;;0.00;0.00;;;8.50;99.90;;;;;;5087069;28;20040;-61
2022/01/27 12:58:06;;;;;;;0.00;0.00;;;8.60;99.90;;;;;;5087053;28;20102;-62
2022/01/27 13:00:36;;;;;;;0.00;0.00;;;8.70;99.90;;;;;;5086316;28;20044;-61
2022/01/27 13:03:03;;;;;;;0.00;0.00;;;8.50;99.90;;;;;;5081145;28;20079;-62
2022/01/27 13:05:36;;;;;;;0.00;0.00;;;8.50;99.90;;;;;;5084740;28;20054;-62
2022/01/27 13:08:10;;;;;;;0.00;0.00;;;8.70;99.90;;;;;;5096390;28;20055;-62
2022/01/27 13:10:37;;;;;;;0.00;0.00;;;8.50;99.90;;;;;;5070367;28;20086;-61
2022/01/27 13:13:14;;;;;;;0.03;0.03;;;9.70;99.90;;;;;;5066432;28;20048;-62
2022/01/27 13:15:40;;;;;;;0.00;0.00;;;8.60;99.90;;;;;;5065535;28;20113;-62
2022/01/27 13:18:26;;;;;;;0.00;0.00;;;8.40;99.90;;;;;;5065640;28;20138;-62
2022/01/27 13:20:56;;;;;;;0.00;0.00;;;8.50;99.90;;;;;;5066374;28;20717;-64
2022/01/27 13:23:36;;;;;;;0.00;0.00;;;8.50;99.90;;;;;;5065524;28;20047;-61
2022/01/27 13:26:10;;;;;;;0.00;0.00;;;8.50;99.90;;;;;;5080320;28;20036;-61
2022/01/27 13:28:38;;;;;;;0.00;0.00;;;8.60;99.90;;;;;;5075956;28;20143;-61
2022/01/27 13:31:05;;;;;;;0.00;0.00;;;8.60;99.90;;;;;;5084157;28;20076;-61
2022/01/27 13:33:43;;;;;;;0.00;0.00;;;8.50;99.90;;;;;;5086373;28;20088;-61
2022/01/27 13:36:26;;;;;;;0.00;0.00;;;8.50;99.90;;;;;;5085917;28;20457;-61
2022/01/27 13:39:10;;;;;;;0.10;0.10;;;8.60;99.90;;;;;;5086596;28;20043;-62
2022/01/27 13:41:40;;;;;;;0.20;0.20;;;8.60;99.90;;;;;;5086155;28;20044;-61
2022/01/27 13:44:08;;;;;;;0.00;0.00;;;9.70;99.90;;;;;;5085298;28;20047;-61
2022/01/27 13:46:44;;;;;;;0.10;0.10;;;8.60;99.90;;;;;;5085949;28;20094;-62
2022/01/27 13:49:13;;;;;;;0.00;0.00;;;8.60;99.90;;;;;;5086147;28;20047;-62
2022/01/27 13:52:10;;;;;;;0.00;0.00;;;8.60;99.90;;;;;;5084780;28;20089;-61